sensor_id;sensor_type;location;lat;lon;timestamp;P1;durP1;ratioP1;P2;durP2;ratioP2
41687;SDS011;27371;42.686;23.362;2024-01-27T00:00:22;10.88;;;2.22;;
41687;SDS011;27371;42.686;23.362;2024-01-27T00:02:47;6.72;;;1.77;;
41687;SDS011;27371;42.686;23.362;2024-01-27T00:05:13;6.85;;;2.17;;
41687;SDS011;27371;42.686;23.362;2024-01-27T00:07:38;5.32;;;2.05;;
41687;SDS011;27371;42.686;23.362;2024-01-27T00:10:03;6.65;;;2.60;;
41687;SDS011;27371;42.686;23.362;2024-01-27T00:12:29;7.20;;;1.92;;
41687;SDS011;27371;42.686;23.362;2024-01-27T00:14:54;8.50;;;2.17;;
41687;SDS011;27371;42.686;23.362;2024-01-27T00:17:20;7.95;;;2.20;;
41687;SDS011;27371;42.686;23.362;2024-01-27T00:19:53;8.15;;;2.15;;
41687;SDS011;27371;42.686;23.362;2024-01-27T00:22:19;8.23;;;2.47;;
41687;SDS011;27371;42.686;23.362;2024-01-27T00:24:46;8.55;;;2.60;;
41687;SDS011;27371;42.686;23.362;2024-01-27T00:27:11;10.82;;;2.60;;
41687;SDS011;27371;42.686;23.362;2024-01-27T00:29:36;8.02;;;2.55;;
41687;SDS011;27371;42.686;23.362;2024-01-27T00:32:02;8.38;;;2.67;;
41687;SDS011;27371;42.686;23.362;2024-01-27T00:34:27;6.90;;;2.63;;
41687;SDS011;27371;42.686;23.362;2024-01-27T00:36:52;6.28;;;2.45;;
41687;SDS011;27371;42.686;23.362;2024-01-27T00:39:18;8.55;;;3.05;;
41687;SDS011;27371;42.686;23.362;2024-01-27T00:41:44;10.65;;;4.00;;
41687;SDS011;27371;42.686;23.362;2024-01-27T00:44:09;9.60;;;4.28;;
41687;SDS011;27371;42.686;23.362;2024-01-27T00:46:36;10.93;;;4.30;;
41687;SDS011;27371;42.686;23.362;2024-01-27T00:49:01;11.10;;;4.63;;
41687;SDS011;27371;42.686;23.362;2024-01-27T00:51:26;9.25;;;4.78;;
41687;SDS011;27371;42.686;23.362;2024-01-27T00:53:52;11.98;;;4.93;;
41687;SDS011;27371;42.686;23.362;2024-01-27T00:56:17;12.80;;;5.07;;
41687;SDS011;27371;42.686;23.362;2024-01-27T00:58:42;12.20;;;4.68;;
41687;SDS011;27371;42.686;23.362;2024-01-27T01:03:43;11.50;;;4.47;;
41687;SDS011;27371;42.686;23.362;2024-01-27T01:06:08;16.60;;;4.95;;
41687;SDS011;27371;42.686;23.362;2024-01-27T01:08:33;12.07;;;4.90;;
41687;SDS011;27371;42.686;23.362;2024-01-27T01:10:59;11.73;;;4.55;;
41687;SDS011;27371;42.686;23.362;2024-01-27T01:13:24;11.70;;;4.60;;
41687;SDS011;27371;42.686;23.362;2024-01-27T01:15:49;11.80;;;4.18;;
41687;SDS011;27371;42.686;23.362;2024-01-27T01:18:15;12.48;;;4.80;;
41687;SDS011;27371;42.686;23.362;2024-01-27T01:20:40;9.02;;;3.60;;
41687;SDS011;27371;42.686;23.362;2024-01-27T01:23:05;10.60;;;3.30;;
41687;SDS011;27371;42.686;23.362;2024-01-27T01:25:31;9.38;;;2.75;;
41687;SDS011;27371;42.686;23.362;2024-01-27T01:27:57;9.48;;;2.33;;
41687;SDS011;27371;42.686;23.362;2024-01-27T01:30:22;8.15;;;2.35;;
41687;SDS011;27371;42.686;23.362;2024-01-27T01:32:47;5.82;;;2.10;;
41687;SDS011;27371;42.686;23.362;2024-01-27T01:35:13;9.70;;;3.05;;
41687;SDS011;27371;42.686;23.362;2024-01-27T01:37:38;8.63;;;2.47;;
41687;SDS011;27371;42.686;23.362;2024-01-27T01:40:04;7.63;;;2.20;;
41687;SDS011;27371;42.686;23.362;2024-01-27T01:42:30;7.68;;;2.60;;
41687;SDS011;27371;42.686;23.362;2024-01-27T01:44:58;5.10;;;1.83;;
41687;SDS011;27371;42.686;23.362;2024-01-27T01:47:23;6.75;;;1.92;;
41687;SDS011;27371;42.686;23.362;2024-01-27T01:49:49;8.32;;;2.53;;
41687;SDS011;27371;42.686;23.362;2024-01-27T01:52:15;9.95;;;1.90;;
41687;SDS011;27371;42.686;23.362;2024-01-27T01:54:48;5.35;;;1.92;;
41687;SDS011;27371;42.686;23.362;2024-01-27T01:57:14;5.50;;;2.13;;
41687;SDS011;27371;42.686;23.362;2024-01-27T01:59:39;7.70;;;2.70;;
41687;SDS011;27371;42.686;23.362;2024-01-27T02:02:06;6.10;;;1.90;;
41687;SDS011;27371;42.686;23.362;2024-01-27T02:04:38;11.70;;;2.22;;
41687;SDS011;27371;42.686;23.362;2024-01-27T02:07:04;6.85;;;2.30;;
41687;SDS011;27371;42.686;23.362;2024-01-27T02:09:29;8.25;;;2.10;;
41687;SDS011;27371;42.686;23.362;2024-01-27T02:11:55;8.43;;;1.92;;
41687;SDS011;27371;42.686;23.362;2024-01-27T02:14:21;5.85;;;1.95;;
41687;SDS011;27371;42.686;23.362;2024-01-27T02:16:50;8.70;;;2.00;;
41687;SDS011;27371;42.686;23.362;2024-01-27T02:19:15;6.63;;;1.90;;
41687;SDS011;27371;42.686;23.362;2024-01-27T02:21:41;8.23;;;2.22;;
41687;SDS011;27371;42.686;23.362;2024-01-27T02:24:07;11.27;;;2.55;;
41687;SDS011;27371;42.686;23.362;2024-01-27T02:26:32;9.45;;;2.40;;
41687;SDS011;27371;42.686;23.362;2024-01-27T02:28:57;12.32;;;2.95;;
41687;SDS011;27371;42.686;23.362;2024-01-27T02:31:23;11.50;;;3.15;;
41687;SDS011;27371;42.686;23.362;2024-01-27T02:33:48;10.25;;;3.17;;
41687;SDS011;27371;42.686;23.362;2024-01-27T02:36:13;10.27;;;2.88;;
41687;SDS011;27371;42.686;23.362;2024-01-27T02:38:39;9.13;;;3.05;;
41687;SDS011;27371;42.686;23.362;2024-01-27T02:41:04;7.55;;;2.70;;
41687;SDS011;27371;42.686;23.362;2024-01-27T02:43:30;8.57;;;2.95;;
41687;SDS011;27371;42.686;23.362;2024-01-27T02:45:55;9.80;;;3.35;;
41687;SDS011;27371;42.686;23.362;2024-01-27T02:48:20;8.50;;;2.85;;
41687;SDS011;27371;42.686;23.362;2024-01-27T02:50:46;8.60;;;2.63;;
41687;SDS011;27371;42.686;23.362;2024-01-27T02:53:11;8.80;;;2.88;;
41687;SDS011;27371;42.686;23.362;2024-01-27T02:55:36;9.43;;;3.33;;
41687;SDS011;27371;42.686;23.362;2024-01-27T02:58:02;10.55;;;4.03;;
41687;SDS011;27371;42.686;23.362;2024-01-27T03:00:27;10.70;;;3.63;;
41687;SDS011;27371;42.686;23.362;2024-01-27T03:02:53;10.98;;;3.33;;
41687;SDS011;27371;42.686;23.362;2024-01-27T03:05:19;8.35;;;2.60;;
41687;SDS011;27371;42.686;23.362;2024-01-27T03:07:45;11.52;;;3.28;;
41687;SDS011;27371;42.686;23.362;2024-01-27T03:10:10;10.25;;;3.30;;
41687;SDS011;27371;42.686;23.362;2024-01-27T03:12:36;11.05;;;2.70;;
41687;SDS011;27371;42.686;23.362;2024-01-27T03:15:01;8.85;;;2.58;;
41687;SDS011;27371;42.686;23.362;2024-01-27T03:17:26;11.80;;;3.00;;
41687;SDS011;27371;42.686;23.362;2024-01-27T03:19:52;8.20;;;2.47;;
41687;SDS011;27371;42.686;23.362;2024-01-27T03:22:18;9.68;;;2.65;;
41687;SDS011;27371;42.686;23.362;2024-01-27T03:24:43;10.15;;;2.42;;
41687;SDS011;27371;42.686;23.362;2024-01-27T03:27:08;6.80;;;2.65;;
41687;SDS011;27371;42.686;23.362;2024-01-27T03:29:34;6.07;;;2.17;;
41687;SDS011;27371;42.686;23.362;2024-01-27T03:31:59;6.75;;;1.90;;
41687;SDS011;27371;42.686;23.362;2024-01-27T03:34:24;8.90;;;2.47;;
41687;SDS011;27371;42.686;23.362;2024-01-27T03:36:52;7.00;;;1.70;;
41687;SDS011;27371;42.686;23.362;2024-01-27T03:39:17;5.57;;;1.52;;
41687;SDS011;27371;42.686;23.362;2024-01-27T03:41:43;5.43;;;1.50;;
41687;SDS011;27371;42.686;23.362;2024-01-27T03:44:08;9.48;;;2.08;;
41687;SDS011;27371;42.686;23.362;2024-01-27T03:46:33;5.18;;;1.38;;
41687;SDS011;27371;42.686;23.362;2024-01-27T03:48:59;7.43;;;1.50;;
41687;SDS011;27371;42.686;23.362;2024-01-27T03:51:25;7.43;;;1.70;;
41687;SDS011;27371;42.686;23.362;2024-01-27T03:53:51;8.45;;;1.70;;
41687;SDS011;27371;42.686;23.362;2024-01-27T03:56:16;5.50;;;1.60;;
41687;SDS011;27371;42.686;23.362;2024-01-27T03:58:42;3.90;;;1.35;;
41687;SDS011;27371;42.686;23.362;2024-01-27T04:01:07;7.15;;;1.67;;
41687;SDS011;27371;42.686;23.362;2024-01-27T04:03:32;7.28;;;1.45;;
41687;SDS011;27371;42.686;23.362;2024-01-27T04:05:58;5.60;;;1.67;;
41687;SDS011;27371;42.686;23.362;2024-01-27T04:08:23;7.47;;;2.17;;
41687;SDS011;27371;42.686;23.362;2024-01-27T04:10:49;6.60;;;1.60;;
41687;SDS011;27371;42.686;23.362;2024-01-27T04:13:15;8.20;;;1.90;;
41687;SDS011;27371;42.686;23.362;2024-01-27T04:15:40;4.47;;;1.58;;
41687;SDS011;27371;42.686;23.362;2024-01-27T04:18:06;5.25;;;2.83;;
41687;SDS011;27371;42.686;23.362;2024-01-27T04:20:33;7.20;;;1.52;;
41687;SDS011;27371;42.686;23.362;2024-01-27T04:22:58;6.47;;;1.80;;
41687;SDS011;27371;42.686;23.362;2024-01-27T04:25:24;4.07;;;1.50;;
41687;SDS011;27371;42.686;23.362;2024-01-27T04:27:49;5.40;;;1.55;;
41687;SDS011;27371;42.686;23.362;2024-01-27T04:30:15;4.93;;;1.77;;
41687;SDS011;27371;42.686;23.362;2024-01-27T04:32:40;4.97;;;1.92;;
41687;SDS011;27371;42.686;23.362;2024-01-27T04:35:09;8.18;;;2.00;;
41687;SDS011;27371;42.686;23.362;2024-01-27T04:37:35;6.00;;;1.85;;
41687;SDS011;27371;42.686;23.362;2024-01-27T04:40:00;5.38;;;1.85;;
41687;SDS011;27371;42.686;23.362;2024-01-27T04:42:25;3.03;;;1.13;;
41687;SDS011;27371;42.686;23.362;2024-01-27T04:44:51;4.35;;;1.50;;
41687;SDS011;27371;42.686;23.362;2024-01-27T04:47:17;6.00;;;1.73;;
41687;SDS011;27371;42.686;23.362;2024-01-27T04:49:42;9.38;;;1.70;;
41687;SDS011;27371;42.686;23.362;2024-01-27T04:52:07;6.57;;;1.67;;
41687;SDS011;27371;42.686;23.362;2024-01-27T04:54:33;6.22;;;1.63;;
41687;SDS011;27371;42.686;23.362;2024-01-27T04:56:58;6.43;;;1.55;;
41687;SDS011;27371;42.686;23.362;2024-01-27T04:59:23;5.15;;;1.45;;
41687;SDS011;27371;42.686;23.362;2024-01-27T05:01:50;4.68;;;1.55;;
41687;SDS011;27371;42.686;23.362;2024-01-27T05:04:16;5.22;;;1.88;;
41687;SDS011;27371;42.686;23.362;2024-01-27T05:06:44;5.32;;;2.22;;
41687;SDS011;27371;42.686;23.362;2024-01-27T05:09:12;7.45;;;2.65;;
41687;SDS011;27371;42.686;23.362;2024-01-27T05:11:38;5.47;;;2.22;;
41687;SDS011;27371;42.686;23.362;2024-01-27T05:14:03;5.80;;;2.55;;
41687;SDS011;27371;42.686;23.362;2024-01-27T05:16:29;7.43;;;2.83;;
41687;SDS011;27371;42.686;23.362;2024-01-27T05:18:54;9.35;;;2.78;;
41687;SDS011;27371;42.686;23.362;2024-01-27T05:21:20;10.23;;;3.40;;
41687;SDS011;27371;42.686;23.362;2024-01-27T05:23:45;6.38;;;3.25;;
41687;SDS011;27371;42.686;23.362;2024-01-27T05:26:11;11.73;;;4.22;;
41687;SDS011;27371;42.686;23.362;2024-01-27T05:28:39;11.85;;;3.88;;
41687;SDS011;27371;42.686;23.362;2024-01-27T05:31:08;12.05;;;3.50;;
41687;SDS011;27371;42.686;23.362;2024-01-27T05:33:34;10.63;;;3.88;;
41687;SDS011;27371;42.686;23.362;2024-01-27T05:35:59;8.70;;;3.85;;
41687;SDS011;27371;42.686;23.362;2024-01-27T05:38:27;9.93;;;3.47;;
41687;SDS011;27371;42.686;23.362;2024-01-27T05:40:55;8.40;;;3.28;;
41687;SDS011;27371;42.686;23.362;2024-01-27T05:43:20;12.27;;;3.85;;
41687;SDS011;27371;42.686;23.362;2024-01-27T05:45:46;8.20;;;3.78;;
41687;SDS011;27371;42.686;23.362;2024-01-27T05:48:11;11.90;;;3.45;;
41687;SDS011;27371;42.686;23.362;2024-01-27T05:50:37;9.27;;;3.45;;
41687;SDS011;27371;42.686;23.362;2024-01-27T05:53:02;9.02;;;3.28;;
41687;SDS011;27371;42.686;23.362;2024-01-27T05:55:28;8.40;;;3.17;;
41687;SDS011;27371;42.686;23.362;2024-01-27T05:57:53;6.55;;;3.08;;
41687;SDS011;27371;42.686;23.362;2024-01-27T06:00:20;8.07;;;2.60;;
41687;SDS011;27371;42.686;23.362;2024-01-27T06:02:46;7.60;;;2.47;;
41687;SDS011;27371;42.686;23.362;2024-01-27T06:05:11;8.52;;;2.97;;
41687;SDS011;27371;42.686;23.362;2024-01-27T06:07:40;6.25;;;3.00;;
41687;SDS011;27371;42.686;23.362;2024-01-27T06:10:09;8.25;;;3.25;;
41687;SDS011;27371;42.686;23.362;2024-01-27T06:12:37;9.77;;;3.80;;
41687;SDS011;27371;42.686;23.362;2024-01-27T06:15:02;9.10;;;3.50;;
41687;SDS011;27371;42.686;23.362;2024-01-27T06:17:28;13.02;;;4.30;;
41687;SDS011;27371;42.686;23.362;2024-01-27T06:19:53;8.20;;;3.65;;
41687;SDS011;27371;42.686;23.362;2024-01-27T06:22:19;8.30;;;3.70;;
41687;SDS011;27371;42.686;23.362;2024-01-27T06:24:44;11.93;;;3.70;;
41687;SDS011;27371;42.686;23.362;2024-01-27T06:27:10;11.18;;;3.70;;
41687;SDS011;27371;42.686;23.362;2024-01-27T06:29:36;9.88;;;3.60;;
41687;SDS011;27371;42.686;23.362;2024-01-27T06:32:01;9.25;;;4.13;;
41687;SDS011;27371;42.686;23.362;2024-01-27T06:34:26;13.63;;;3.85;;
41687;SDS011;27371;42.686;23.362;2024-01-27T06:36:52;12.02;;;4.20;;
41687;SDS011;27371;42.686;23.362;2024-01-27T06:39:17;10.18;;;4.03;;
41687;SDS011;27371;42.686;23.362;2024-01-27T06:41:43;7.35;;;3.60;;
41687;SDS011;27371;42.686;23.362;2024-01-27T06:44:08;8.90;;;2.65;;
41687;SDS011;27371;42.686;23.362;2024-01-27T06:46:34;9.45;;;3.33;;
41687;SDS011;27371;42.686;23.362;2024-01-27T06:48:59;6.47;;;2.60;;
41687;SDS011;27371;42.686;23.362;2024-01-27T06:51:24;5.88;;;3.08;;
41687;SDS011;27371;42.686;23.362;2024-01-27T06:53:50;4.60;;;2.10;;
41687;SDS011;27371;42.686;23.362;2024-01-27T06:56:16;4.22;;;1.55;;
41687;SDS011;27371;42.686;23.362;2024-01-27T06:58:41;3.53;;;1.27;;
41687;SDS011;27371;42.686;23.362;2024-01-27T07:01:06;3.47;;;0.93;;
41687;SDS011;27371;42.686;23.362;2024-01-27T07:03:32;3.63;;;1.15;;
41687;SDS011;27371;42.686;23.362;2024-01-27T07:05:57;2.83;;;1.20;;
41687;SDS011;27371;42.686;23.362;2024-01-27T07:08:26;3.50;;;1.30;;
41687;SDS011;27371;42.686;23.362;2024-01-27T07:10:51;2.60;;;1.40;;
41687;SDS011;27371;42.686;23.362;2024-01-27T07:13:16;3.05;;;1.92;;
41687;SDS011;27371;42.686;23.362;2024-01-27T07:15:42;2.47;;;1.13;;
41687;SDS011;27371;42.686;23.362;2024-01-27T07:18:07;4.25;;;1.50;;
41687;SDS011;27371;42.686;23.362;2024-01-27T07:20:33;3.15;;;1.20;;
41687;SDS011;27371;42.686;23.362;2024-01-27T07:22:59;2.25;;;1.25;;
41687;SDS011;27371;42.686;23.362;2024-01-27T07:25:24;3.05;;;1.10;;
41687;SDS011;27371;42.686;23.362;2024-01-27T07:27:50;3.10;;;1.02;;
41687;SDS011;27371;42.686;23.362;2024-01-27T07:30:15;4.15;;;1.40;;
41687;SDS011;27371;42.686;23.362;2024-01-27T07:32:41;4.35;;;1.20;;
41687;SDS011;27371;42.686;23.362;2024-01-27T07:35:06;2.65;;;1.05;;
41687;SDS011;27371;42.686;23.362;2024-01-27T07:37:31;2.88;;;1.20;;
41687;SDS011;27371;42.686;23.362;2024-01-27T07:39:57;1.98;;;0.90;;
41687;SDS011;27371;42.686;23.362;2024-01-27T07:42:22;2.03;;;1.00;;
41687;SDS011;27371;42.686;23.362;2024-01-27T07:44:48;3.13;;;1.15;;
41687;SDS011;27371;42.686;23.362;2024-01-27T07:47:14;3.70;;;1.30;;
41687;SDS011;27371;42.686;23.362;2024-01-27T07:49:39;3.33;;;1.23;;
41687;SDS011;27371;42.686;23.362;2024-01-27T07:52:05;2.53;;;1.10;;
41687;SDS011;27371;42.686;23.362;2024-01-27T07:54:31;3.40;;;1.20;;
41687;SDS011;27371;42.686;23.362;2024-01-27T07:56:58;2.95;;;1.63;;
41687;SDS011;27371;42.686;23.362;2024-01-27T07:59:23;2.50;;;1.42;;
41687;SDS011;27371;42.686;23.362;2024-01-27T08:01:49;6.05;;;2.33;;
41687;SDS011;27371;42.686;23.362;2024-01-27T08:04:14;6.13;;;1.88;;
41687;SDS011;27371;42.686;23.362;2024-01-27T08:06:47;5.20;;;1.70;;
41687;SDS011;27371;42.686;23.362;2024-01-27T08:09:13;5.13;;;1.77;;
41687;SDS011;27371;42.686;23.362;2024-01-27T08:11:38;3.25;;;1.52;;
41687;SDS011;27371;42.686;23.362;2024-01-27T08:14:04;7.05;;;3.08;;
41687;SDS011;27371;42.686;23.362;2024-01-27T08:16:29;5.60;;;2.30;;
41687;SDS011;27371;42.686;23.362;2024-01-27T08:18:54;3.78;;;2.20;;
41687;SDS011;27371;42.686;23.362;2024-01-27T08:21:20;4.85;;;2.00;;
41687;SDS011;27371;42.686;23.362;2024-01-27T08:23:46;5.25;;;1.83;;
41687;SDS011;27371;42.686;23.362;2024-01-27T08:26:11;3.10;;;1.60;;
41687;SDS011;27371;42.686;23.362;2024-01-27T08:28:36;4.47;;;2.10;;
41687;SDS011;27371;42.686;23.362;2024-01-27T08:31:02;3.65;;;1.88;;
41687;SDS011;27371;42.686;23.362;2024-01-27T08:33:27;6.25;;;2.40;;
41687;SDS011;27371;42.686;23.362;2024-01-27T08:35:53;3.80;;;1.75;;
41687;SDS011;27371;42.686;23.362;2024-01-27T08:38:18;4.32;;;2.03;;
41687;SDS011;27371;42.686;23.362;2024-01-27T08:40:44;5.05;;;1.83;;
41687;SDS011;27371;42.686;23.362;2024-01-27T08:43:09;2.58;;;1.58;;
41687;SDS011;27371;42.686;23.362;2024-01-27T08:45:37;3.75;;;1.77;;
41687;SDS011;27371;42.686;23.362;2024-01-27T08:48:04;2.97;;;1.70;;
41687;SDS011;27371;42.686;23.362;2024-01-27T08:50:29;6.22;;;2.30;;
41687;SDS011;27371;42.686;23.362;2024-01-27T08:52:55;4.13;;;2.00;;
41687;SDS011;27371;42.686;23.362;2024-01-27T08:55:23;3.75;;;1.73;;
41687;SDS011;27371;42.686;23.362;2024-01-27T08:57:51;3.05;;;1.60;;
41687;SDS011;27371;42.686;23.362;2024-01-27T09:00:17;3.03;;;1.50;;
41687;SDS011;27371;42.686;23.362;2024-01-27T09:02:43;2.72;;;1.55;;
41687;SDS011;27371;42.686;23.362;2024-01-27T09:05:08;1.90;;;1.10;;
41687;SDS011;27371;42.686;23.362;2024-01-27T09:07:34;3.20;;;1.60;;
41687;SDS011;27371;42.686;23.362;2024-01-27T09:09:59;3.25;;;1.17;;
41687;SDS011;27371;42.686;23.362;2024-01-27T09:12:25;3.72;;;1.30;;
41687;SDS011;27371;42.686;23.362;2024-01-27T09:14:50;2.28;;;1.13;;
41687;SDS011;27371;42.686;23.362;2024-01-27T09:17:16;4.32;;;1.25;;
41687;SDS011;27371;42.686;23.362;2024-01-27T09:19:41;2.58;;;1.42;;
41687;SDS011;27371;42.686;23.362;2024-01-27T09:22:07;3.55;;;1.10;;
41687;SDS011;27371;42.686;23.362;2024-01-27T09:24:32;5.47;;;1.67;;
41687;SDS011;27371;42.686;23.362;2024-01-27T09:26:57;3.00;;;0.90;;
41687;SDS011;27371;42.686;23.362;2024-01-27T09:29:23;6.28;;;1.55;;
41687;SDS011;27371;42.686;23.362;2024-01-27T09:31:48;7.63;;;1.25;;
41687;SDS011;27371;42.686;23.362;2024-01-27T09:34:14;4.15;;;1.20;;
41687;SDS011;27371;42.686;23.362;2024-01-27T09:36:39;3.03;;;1.10;;
41687;SDS011;27371;42.686;23.362;2024-01-27T09:39:04;4.15;;;1.13;;
41687;SDS011;27371;42.686;23.362;2024-01-27T09:41:30;2.55;;;1.13;;
41687;SDS011;27371;42.686;23.362;2024-01-27T09:43:58;2.25;;;1.00;;
41687;SDS011;27371;42.686;23.362;2024-01-27T09:46:24;2.17;;;0.90;;
41687;SDS011;27371;42.686;23.362;2024-01-27T09:48:50;5.38;;;1.23;;
41687;SDS011;27371;42.686;23.362;2024-01-27T09:51:16;2.55;;;1.25;;
41687;SDS011;27371;42.686;23.362;2024-01-27T09:53:41;6.95;;;1.27;;
41687;SDS011;27371;42.686;23.362;2024-01-27T09:56:07;2.42;;;1.23;;
41687;SDS011;27371;42.686;23.362;2024-01-27T09:58:32;5.57;;;1.27;;
41687;SDS011;27371;42.686;23.362;2024-01-27T10:00:58;1.95;;;0.93;;
41687;SDS011;27371;42.686;23.362;2024-01-27T10:03:24;2.90;;;1.13;;
41687;SDS011;27371;42.686;23.362;2024-01-27T10:05:51;2.05;;;0.90;;
41687;SDS011;27371;42.686;23.362;2024-01-27T10:08:17;3.13;;;1.20;;
41687;SDS011;27371;42.686;23.362;2024-01-27T10:10:42;2.33;;;1.02;;
41687;SDS011;27371;42.686;23.362;2024-01-27T10:13:08;4.47;;;1.27;;
41687;SDS011;27371;42.686;23.362;2024-01-27T10:15:35;4.18;;;1.35;;
41687;SDS011;27371;42.686;23.362;2024-01-27T10:18:07;1.95;;;1.23;;
41687;SDS011;27371;42.686;23.362;2024-01-27T10:20:32;4.85;;;2.05;;
41687;SDS011;27371;42.686;23.362;2024-01-27T10:22:58;2.63;;;1.10;;
41687;SDS011;27371;42.686;23.362;2024-01-27T10:25:24;2.42;;;0.93;;
41687;SDS011;27371;42.686;23.362;2024-01-27T10:27:55;2.03;;;1.10;;
41687;SDS011;27371;42.686;23.362;2024-01-27T10:30:20;3.72;;;1.30;;
41687;SDS011;27371;42.686;23.362;2024-01-27T10:33:04;2.10;;;1.05;;
41687;SDS011;27371;42.686;23.362;2024-01-27T10:35:29;1.73;;;0.70;;
41687;SDS011;27371;42.686;23.362;2024-01-27T10:37:55;9.00;;;2.40;;
41687;SDS011;27371;42.686;23.362;2024-01-27T10:40:21;2.08;;;1.25;;
41687;SDS011;27371;42.686;23.362;2024-01-27T10:42:46;2.15;;;1.10;;
41687;SDS011;27371;42.686;23.362;2024-01-27T10:45:15;3.58;;;1.00;;
41687;SDS011;27371;42.686;23.362;2024-01-27T10:47:41;2.78;;;1.10;;
41687;SDS011;27371;42.686;23.362;2024-01-27T10:50:08;3.08;;;0.90;;
41687;SDS011;27371;42.686;23.362;2024-01-27T10:52:37;3.45;;;1.30;;
41687;SDS011;27371;42.686;23.362;2024-01-27T10:55:03;2.15;;;0.90;;
41687;SDS011;27371;42.686;23.362;2024-01-27T10:57:31;2.65;;;1.33;;
41687;SDS011;27371;42.686;23.362;2024-01-27T10:59:58;2.13;;;1.10;;
41687;SDS011;27371;42.686;23.362;2024-01-27T11:02:24;5.82;;;1.67;;
41687;SDS011;27371;42.686;23.362;2024-01-27T11:04:50;3.33;;;1.23;;
41687;SDS011;27371;42.686;23.362;2024-01-27T11:07:17;2.40;;;1.00;;
41687;SDS011;27371;42.686;23.362;2024-01-27T11:09:44;4.70;;;1.30;;
41687;SDS011;27371;42.686;23.362;2024-01-27T11:12:10;3.00;;;1.70;;
41687;SDS011;27371;42.686;23.362;2024-01-27T11:14:36;3.22;;;1.10;;
41687;SDS011;27371;42.686;23.362;2024-01-27T11:17:02;2.00;;;1.05;;
41687;SDS011;27371;42.686;23.362;2024-01-27T11:19:27;2.20;;;1.10;;
41687;SDS011;27371;42.686;23.362;2024-01-27T11:22:02;2.92;;;1.30;;
41687;SDS011;27371;42.686;23.362;2024-01-27T11:27:14;3.72;;;1.20;;
41687;SDS011;27371;42.686;23.362;2024-01-27T11:29:46;5.78;;;1.55;;
41687;SDS011;27371;42.686;23.362;2024-01-27T11:32:12;2.55;;;1.20;;
41687;SDS011;27371;42.686;23.362;2024-01-27T11:34:41;2.30;;;1.30;;
41687;SDS011;27371;42.686;23.362;2024-01-27T11:37:16;4.53;;;1.67;;
41687;SDS011;27371;42.686;23.362;2024-01-27T11:39:42;3.20;;;1.38;;
41687;SDS011;27371;42.686;23.362;2024-01-27T11:42:08;4.60;;;1.70;;
41687;SDS011;27371;42.686;23.362;2024-01-27T11:44:37;4.78;;;1.98;;
41687;SDS011;27371;42.686;23.362;2024-01-27T11:47:02;5.03;;;1.30;;
41687;SDS011;27371;42.686;23.362;2024-01-27T11:49:28;6.10;;;1.70;;
41687;SDS011;27371;42.686;23.362;2024-01-27T11:51:53;3.00;;;1.40;;
41687;SDS011;27371;42.686;23.362;2024-01-27T11:54:18;2.63;;;1.50;;
41687;SDS011;27371;42.686;23.362;2024-01-27T11:56:44;2.47;;;1.45;;
41687;SDS011;27371;42.686;23.362;2024-01-27T11:59:09;5.63;;;1.75;;
41687;SDS011;27371;42.686;23.362;2024-01-27T12:01:35;5.50;;;2.20;;
41687;SDS011;27371;42.686;23.362;2024-01-27T12:04:02;2.20;;;1.10;;
41687;SDS011;27371;42.686;23.362;2024-01-27T12:06:28;3.08;;;1.13;;
41687;SDS011;27371;42.686;23.362;2024-01-27T12:08:55;3.42;;;1.23;;
41687;SDS011;27371;42.686;23.362;2024-01-27T12:11:22;3.92;;;1.58;;
41687;SDS011;27371;42.686;23.362;2024-01-27T12:13:47;7.25;;;1.45;;
41687;SDS011;27371;42.686;23.362;2024-01-27T12:16:12;2.85;;;1.25;;
41687;SDS011;27371;42.686;23.362;2024-01-27T12:18:38;1.95;;;1.13;;
41687;SDS011;27371;42.686;23.362;2024-01-27T12:21:03;8.60;;;1.42;;
41687;SDS011;27371;42.686;23.362;2024-01-27T12:23:29;2.88;;;1.38;;
41687;SDS011;27371;42.686;23.362;2024-01-27T12:25:54;5.75;;;0.88;;
41687;SDS011;27371;42.686;23.362;2024-01-27T12:28:21;3.42;;;1.05;;
41687;SDS011;27371;42.686;23.362;2024-01-27T12:30:47;6.97;;;1.83;;
41687;SDS011;27371;42.686;23.362;2024-01-27T12:33:12;5.03;;;1.50;;
41687;SDS011;27371;42.686;23.362;2024-01-27T12:35:38;4.47;;;1.80;;
41687;SDS011;27371;42.686;23.362;2024-01-27T12:38:05;3.90;;;1.40;;
41687;SDS011;27371;42.686;23.362;2024-01-27T12:40:30;2.38;;;1.00;;
41687;SDS011;27371;42.686;23.362;2024-01-27T12:42:56;2.25;;;0.90;;
41687;SDS011;27371;42.686;23.362;2024-01-27T12:45:21;5.88;;;0.98;;
41687;SDS011;27371;42.686;23.362;2024-01-27T12:47:47;2.10;;;1.05;;
41687;SDS011;27371;42.686;23.362;2024-01-27T12:50:12;2.22;;;1.38;;
41687;SDS011;27371;42.686;23.362;2024-01-27T12:52:38;3.13;;;1.02;;
41687;SDS011;27371;42.686;23.362;2024-01-27T12:55:04;2.75;;;0.90;;
41687;SDS011;27371;42.686;23.362;2024-01-27T12:57:30;2.63;;;1.20;;
41687;SDS011;27371;42.686;23.362;2024-01-27T12:59:55;2.63;;;1.20;;
41687;SDS011;27371;42.686;23.362;2024-01-27T13:02:20;2.00;;;1.20;;
41687;SDS011;27371;42.686;23.362;2024-01-27T13:04:46;2.67;;;0.98;;
41687;SDS011;27371;42.686;23.362;2024-01-27T13:07:11;3.65;;;0.90;;
41687;SDS011;27371;42.686;23.362;2024-01-27T13:09:36;2.58;;;1.17;;
41687;SDS011;27371;42.686;23.362;2024-01-27T13:12:02;2.88;;;1.23;;
41687;SDS011;27371;42.686;23.362;2024-01-27T13:14:28;3.28;;;1.20;;
41687;SDS011;27371;42.686;23.362;2024-01-27T13:16:53;2.42;;;0.95;;
41687;SDS011;27371;42.686;23.362;2024-01-27T13:19:19;4.63;;;1.10;;
41687;SDS011;27371;42.686;23.362;2024-01-27T13:21:45;3.15;;;1.15;;
41687;SDS011;27371;42.686;23.362;2024-01-27T13:24:10;3.80;;;1.10;;
41687;SDS011;27371;42.686;23.362;2024-01-27T13:26:36;4.03;;;1.10;;
41687;SDS011;27371;42.686;23.362;2024-01-27T13:29:03;3.95;;;1.70;;
41687;SDS011;27371;42.686;23.362;2024-01-27T13:31:28;4.30;;;1.20;;
41687;SDS011;27371;42.686;23.362;2024-01-27T13:33:54;2.38;;;1.20;;
41687;SDS011;27371;42.686;23.362;2024-01-27T13:36:19;2.60;;;1.00;;
41687;SDS011;27371;42.686;23.362;2024-01-27T13:38:45;2.97;;;1.42;;
41687;SDS011;27371;42.686;23.362;2024-01-27T13:41:10;2.88;;;0.82;;
41687;SDS011;27371;42.686;23.362;2024-01-27T13:43:36;2.28;;;0.70;;
41687;SDS011;27371;42.686;23.362;2024-01-27T13:46:01;5.03;;;1.05;;
41687;SDS011;27371;42.686;23.362;2024-01-27T13:48:26;4.50;;;1.50;;
41687;SDS011;27371;42.686;23.362;2024-01-27T13:50:52;9.25;;;1.20;;
41687;SDS011;27371;42.686;23.362;2024-01-27T13:53:17;1.70;;;0.95;;
41687;SDS011;27371;42.686;23.362;2024-01-27T13:55:43;3.17;;;1.00;;
41687;SDS011;27371;42.686;23.362;2024-01-27T13:58:09;5.13;;;0.93;;
41687;SDS011;27371;42.686;23.362;2024-01-27T14:00:34;3.15;;;1.25;;
41687;SDS011;27371;42.686;23.362;2024-01-27T14:03:00;3.20;;;1.30;;
41687;SDS011;27371;42.686;23.362;2024-01-27T14:05:26;2.55;;;0.80;;
41687;SDS011;27371;42.686;23.362;2024-01-27T14:07:51;4.47;;;1.08;;
41687;SDS011;27371;42.686;23.362;2024-01-27T14:10:16;3.15;;;1.50;;
41687;SDS011;27371;42.686;23.362;2024-01-27T14:12:42;10.82;;;3.63;;
41687;SDS011;27371;42.686;23.362;2024-01-27T14:15:08;4.53;;;1.50;;
41687;SDS011;27371;42.686;23.362;2024-01-27T14:17:34;1.98;;;1.20;;
41687;SDS011;27371;42.686;23.362;2024-01-27T14:20:01;6.72;;;1.73;;
41687;SDS011;27371;42.686;23.362;2024-01-27T14:22:26;3.83;;;1.80;;
41687;SDS011;27371;42.686;23.362;2024-01-27T14:24:52;6.88;;;1.80;;
41687;SDS011;27371;42.686;23.362;2024-01-27T14:27:18;4.53;;;2.03;;
41687;SDS011;27371;42.686;23.362;2024-01-27T14:29:50;4.22;;;1.85;;